MaSS Merit — 3FNT3 — position and weather

sailwx.info

Track history (hours):
 
Tides and Currents Weather Stations Pressure Air Temp Water Temp Dewpoint Dewpoint Depression Visibility Wind Speed Wind Dir Waves Ship Positions

MaSS Merit

Last reported at 2017-Mar-04 15:17 UTC. Time now 2017-Mar-25 21:31 UTC.
Position N 30°50' E 122°54'.
Warning: this ship's position is 21 days out of date.

Length 189 m; draft 11.5 m.

Type: Cargo ship. MMSI: 355599000.

Date/timePositionNaut miles runAvg speedWind from/ knotsBaromVisibWave heightAir tempDewpointWater temp
2017-Mar-04 15:17N 30°50' E 122°54'27 9.8
2017-Mar-04 12:30N 31°06' E 122°28'1010.4
2017-Mar-04 11:32N 31°07' E 122°17'1312.9
2017-Mar-04 10:33N 31°14' E 122°04'1111.1
2017-Mar-04 09:33N 31°16' E 121°51'10 9.6
2017-Mar-04 08:33N 31°20' E 121°41'7 6.6
2017-Mar-04 07:33N 31°23' E 121°34'6 6.2
2017-Mar-04 06:33N 31°27' E 121°28'9 9.3
2017-Mar-04 05:33N 31°33' E 121°20'2 2.3
2017-Mar-04 04:31N 31°35' E 121°19'0 0.0
2017-Mar-04 03:31N 31°35' E 121°19'0 0.0
2017-Mar-04 02:28N 31°35' E 121°19'5 5.9
2017-Mar-04 01:33N 31°38' E 121°14'1111.4
2017-Mar-04 00:33N 31°46' E 121°04'7 6.2
2017-Mar-03 23:29N 31°49' E 120°57'0 0.0
2017-Mar-03 22:23N 31°49' E 120°57'0 0.0
2017-Mar-03 19:17N 31°49' E 120°57'0 0.0
2017-Mar-03 17:29N 31°49' E 120°57'0 0.0
2017-Mar-03 16:23N 31°49' E 120°57'0 0.0
2017-Mar-03 15:26N 31°49' E 120°57'0 0.0
2017-Mar-03 14:29N 31°49' E 120°57'0 0.0
2017-Mar-03 13:17N 31°49' E 120°57'0 0.0
2017-Mar-03 12:29N 31°49' E 120°57'0 0.0
2017-Mar-03 11:29N 31°49' E 120°57'0 0.1
2017-Mar-03 10:29N 31°49' E 120°57'0 0.0
2017-Mar-03 09:23N 31°49' E 120°57'0 0.0
2017-Mar-03 08:05N 31°49' E 120°57'0 0.0
2017-Mar-03 07:29N 31°49' E 120°57'0 0.0
2017-Mar-02 21:05N 31°49' E 120°57'0 0.0
2017-Mar-02 20:29N 31°49' E 120°57'0 0.0
2017-Mar-02 18:05N 31°49' E 120°57'0 0.0
2017-Mar-01 23:23N 31°49' E 120°57'0 0.0
2017-Mar-01 22:29N 31°49' E 120°57'0 0.0
2017-Mar-01 21:29N 31°49' E 120°57'0 0.0
2017-Mar-01 19:11N 31°49' E 120°57'0 0.0
2017-Mar-01 16:29N 31°49' E 120°57'0 0.0
2017-Mar-01 15:29N 31°49' E 120°57'0 0.0
2017-Mar-01 14:05N 31°49' E 120°57'0 0.0
2017-Mar-01 13:17N 31°49' E 120°57'5 1.0
2017-Mar-01 08:33N 31°46' E 121°02'1212.6
2017-Mar-01 07:33N 31°39' E 121°14'1312.9
2017-Mar-01 06:33N 31°30' E 121°25'9 9.5
2017-Mar-01 05:33N 31°24' E 121°33'1310.1
2017-Mar-01 04:18N 31°16' E 121°45'810.7
2017-Mar-01 03:33N 31°10' E 121°51'1211.8
2017-Mar-01 02:33N 31°05' E 122°03'1411.3
2017-Mar-01 01:21N 31°02' E 122°19'8 9.4
2017-Mar-01 00:32N 31°00' E 122°28'7 3.3
2017-Feb-28 22:20N 31°03' E 122°36'0 0.1
2017-Feb-28 21:33N 31°03' E 122°36'8 0.9
2017-Feb-28 12:18N 31°06' E 122°27'6 7.8
2017-Feb-28 11:33N 31°06' E 122°21'1414.2
2017-Feb-28 10:33N 31°13' E 122°06'1514.9
2017-Feb-28 09:33N 31°17' E 121°49'1212.5
2017-Feb-28 08:33N 31°22' E 121°36'10 9.6
2017-Feb-28 07:34N 31°28' E 121°27'9 9.2
2017-Feb-28 06:33N 31°34' E 121°19'9 8.9
2017-Feb-28 05:31N 31°40' E 121°11'9 9.7
2017-Feb-28 04:33N 31°46' E 121°03'21 1.7
2017-Feb-27 16:26N 32°01' E 120°46'  
Track history (hours):
 
Tides and Currents Weather Stations Pressure Air Temp Water Temp Dewpoint Dewpoint Depression Visibility Wind Speed Wind Dir Waves Ship Positions

MaSS Merit

Last reported at 2017-Mar-04 15:17 UTC. Time now 2017-Mar-25 21:31 UTC.
Position N 30°50' E 122°54'.
Warning: this ship's position is 21 days out of date.

Length 189 m; draft 11.5 m.

Type: Cargo ship. MMSI: 355599000.

Date/timePositionNaut miles runAvg speedWind from/ knotsBaromVisibWave heightAir tempDewpointWater temp
2017-Mar-04 15:17N 30°50' E 122°54'27 9.8
2017-Mar-04 12:30N 31°06' E 122°28'1010.4
2017-Mar-04 11:32N 31°07' E 122°17'1312.9
2017-Mar-04 10:33N 31°14' E 122°04'1111.1
2017-Mar-04 09:33N 31°16' E 121°51'10 9.6
2017-Mar-04 08:33N 31°20' E 121°41'7 6.6
2017-Mar-04 07:33N 31°23' E 121°34'6 6.2
2017-Mar-04 06:33N 31°27' E 121°28'9 9.3
2017-Mar-04 05:33N 31°33' E 121°20'2 2.3
2017-Mar-04 04:31N 31°35' E 121°19'0 0.0
2017-Mar-04 03:31N 31°35' E 121°19'0 0.0
2017-Mar-04 02:28N 31°35' E 121°19'5 5.9
2017-Mar-04 01:33N 31°38' E 121°14'1111.4
2017-Mar-04 00:33N 31°46' E 121°04'7 6.2
2017-Mar-03 23:29N 31°49' E 120°57'0 0.0
2017-Mar-03 22:23N 31°49' E 120°57'0 0.0
2017-Mar-03 19:17N 31°49' E 120°57'0 0.0
2017-Mar-03 17:29N 31°49' E 120°57'0 0.0
2017-Mar-03 16:23N 31°49' E 120°57'0 0.0
2017-Mar-03 15:26N 31°49' E 120°57'0 0.0
2017-Mar-03 14:29N 31°49' E 120°57'0 0.0
2017-Mar-03 13:17N 31°49' E 120°57'0 0.0
2017-Mar-03 12:29N 31°49' E 120°57'0 0.0
2017-Mar-03 11:29N 31°49' E 120°57'0 0.1
2017-Mar-03 10:29N 31°49' E 120°57'0 0.0
2017-Mar-03 09:23N 31°49' E 120°57'0 0.0
2017-Mar-03 08:05N 31°49' E 120°57'0 0.0
2017-Mar-03 07:29N 31°49' E 120°57'0 0.0
2017-Mar-02 21:05N 31°49' E 120°57'0 0.0
2017-Mar-02 20:29N 31°49' E 120°57'0 0.0
2017-Mar-02 18:05N 31°49' E 120°57'0 0.0
2017-Mar-01 23:23N 31°49' E 120°57'0 0.0
2017-Mar-01 22:29N 31°49' E 120°57'0 0.0
2017-Mar-01 21:29N 31°49' E 120°57'0 0.0
2017-Mar-01 19:11N 31°49' E 120°57'0 0.0
2017-Mar-01 16:29N 31°49' E 120°57'0 0.0
2017-Mar-01 15:29N 31°49' E 120°57'0 0.0
2017-Mar-01 14:05N 31°49' E 120°57'0 0.0
2017-Mar-01 13:17N 31°49' E 120°57'5 1.0
2017-Mar-01 08:33N 31°46' E 121°02'1212.6
2017-Mar-01 07:33N 31°39' E 121°14'1312.9
2017-Mar-01 06:33N 31°30' E 121°25'9 9.5
2017-Mar-01 05:33N 31°24' E 121°33'1310.1
2017-Mar-01 04:18N 31°16' E 121°45'810.7
2017-Mar-01 03:33N 31°10' E 121°51'1211.8
2017-Mar-01 02:33N 31°05' E 122°03'1411.3
2017-Mar-01 01:21N 31°02' E 122°19'8 9.4
2017-Mar-01 00:32N 31°00' E 122°28'7 3.3
2017-Feb-28 22:20N 31°03' E 122°36'0 0.1
2017-Feb-28 21:33N 31°03' E 122°36'8 0.9
2017-Feb-28 12:18N 31°06' E 122°27'6 7.8
2017-Feb-28 11:33N 31°06' E 122°21'1414.2
2017-Feb-28 10:33N 31°13' E 122°06'1514.9
2017-Feb-28 09:33N 31°17' E 121°49'1212.5
2017-Feb-28 08:33N 31°22' E 121°36'10 9.6
2017-Feb-28 07:34N 31°28' E 121°27'9 9.2
2017-Feb-28 06:33N 31°34' E 121°19'9 8.9
2017-Feb-28 05:31N 31°40' E 121°11'9 9.7
2017-Feb-28 04:33N 31°46' E 121°03'21 1.7
2017-Feb-27 16:26N 32°01' E 120°46'  

Dump ship's entire track history